Time;durP1;ratioP1;P1;durP2;ratioP2;P2;SDS_P1;SDS_P2;PMS_P1;PMS_P2;Temp;Humidity;BMP_temperature;BMP_pressure;BME280_temperature;BME280_humidity;BME280_pressure;Samples;Min_cycle;Max_cycle;Signal;HPM_P1;HPM_P2
2023/08/29 00:05:14;;;;;;;1.83;1.15;;;;;;;12.48;100.00;97282.47;18299533;32;20118;-59
2023/08/29 00:15:17;;;;;;;2.63;1.20;;;;;;;12.49;100.00;97279.47;18299372;32;20046;-59
2023/08/29 00:25:20;;;;;;;1.30;0.90;;;;;;;12.31;100.00;97277.56;18298933;32;20053;-59
2023/08/29 00:35:23;;;;;;;4.18;1.40;;;;;;;12.26;100.00;97275.69;18297837;32;20095;-59
2023/08/29 00:45:31;;;;;;;1.33;1.12;;;;;;;12.36;100.00;97272.87;18297646;32;20400;-59
2023/08/29 00:55:35;;;;;;;2.42;1.08;;;;;;;12.33;100.00;97283.47;18297262;32;20041;-59
2023/08/29 01:05:38;;;;;;;2.72;1.20;;;;;;;12.38;100.00;97294.25;18296770;32;20433;-59
2023/08/29 01:15:45;;;;;;;3.12;1.40;;;;;;;12.40;100.00;97292.06;18296778;32;20106;-59
2023/08/29 01:26:01;;;;;;;1.75;1.25;;;;;;;12.43;100.00;97288.78;18296041;32;20072;-59
2023/08/29 01:36:04;;;;;;;1.90;1.05;;;;;;;12.42;100.00;97279.03;18295069;32;20046;-59
2023/08/29 01:46:07;;;;;;;2.40;1.27;;;;;;;12.34;100.00;97271.53;18294997;32;20066;-59
2023/08/29 01:56:13;;;;;;;1.67;0.85;;;;;;;12.27;100.00;97281.94;18281306;32;20347;-59
2023/08/29 02:06:16;;;;;;;2.65;0.85;;;;;;;12.11;100.00;97270.47;18311751;32;20054;-59
2023/08/29 02:16:19;;;;;;;2.03;0.95;;;;;;;12.09;100.00;97280.81;18301252;32;20479;-59
2023/08/29 02:26:22;;;;;;;4.40;1.00;;;;;;;12.05;100.00;97274.34;18314481;32;20066;-59
2023/08/29 02:36:24;;;;;;;2.55;0.80;;;;;;;12.03;100.00;97288.16;18313551;32;20422;-59
2023/08/29 02:46:27;;;;;;;4.03;1.10;;;;;;;11.96;100.00;97276.88;18313545;32;20095;-59
2023/08/29 02:56:30;;;;;;;2.55;1.10;;;;;;;12.03;100.00;97261.06;18287187;32;20394;-59
2023/08/29 03:06:33;;;;;;;2.70;1.50;;;;;;;12.05;100.00;97258.91;18313081;32;20077;-59
2023/08/29 03:16:37;;;;;;;3.10;1.67;;;;;;;12.07;100.00;97248.56;18304730;32;20062;-59
2023/08/29 03:26:40;;;;;;;1.23;1.07;;;;;;;12.06;100.00;97257.81;18301885;32;20057;-59
2023/08/29 03:36:44;;;;;;;1.20;0.82;;;;;;;11.95;100.00;97232.72;18300935;32;20049;-59
2023/08/29 03:46:46;;;;;;;1.77;1.30;;;;;;;11.93;100.00;97223.25;18300390;32;20415;-59
2023/08/29 03:56:49;;;;;;;1.70;1.48;;;;;;;11.93;100.00;97229.47;18286706;32;20157;-59
2023/08/29 04:06:53;;;;;;;3.20;1.55;;;;;;;12.03;100.00;97232.09;18273624;32;20102;-59
2023/08/29 04:16:55;;;;;;;1.45;1.30;;;;;;;12.11;100.00;97238.75;18285597;32;20089;-59
2023/08/29 04:26:58;;;;;;;2.35;1.30;;;;;;;12.07;100.00;97229.59;18299052;32;20049;-59
2023/08/29 04:37:01;;;;;;;1.30;1.10;;;;;;;12.09;100.00;97227.41;18284405;32;20069;-59
2023/08/29 04:47:05;;;;;;;4.43;1.33;;;;;;;12.10;100.00;97244.47;18297502;32;20092;-59
2023/08/29 04:57:08;;;;;;;1.75;1.40;;;;;;;12.12;100.00;97247.72;18283711;32;20104;-59
2023/08/29 05:07:11;;;;;;;4.10;1.40;;;;;;;12.12;100.00;97248.50;18297112;32;20058;-59
2023/08/29 05:17:14;;;;;;;1.37;1.20;;;;;;;12.10;100.00;97248.00;18296234;32;20065;-59
2023/08/29 05:27:18;;;;;;;2.33;1.20;;;;;;;12.16;100.00;97257.66;18282425;32;20085;-59
2023/08/29 05:37:22;;;;;;;1.62;1.30;;;;;;;12.20;100.00;97255.19;18280449;32;20406;-59
2023/08/29 05:47:25;;;;;;;2.00;0.90;;;;;;;12.25;100.00;97255.13;18295091;32;20146;-59
2023/08/29 05:57:28;;;;;;;2.55;0.90;;;;;;;12.24;100.00;97249.97;18281356;32;20113;-59
2023/08/29 06:07:31;;;;;;;1.60;0.87;;;;;;;12.28;100.00;97262.69;18280792;32;20483;-59
2023/08/29 06:17:34;;;;;;;1.58;1.08;;;;;;;12.41;100.00;97269.28;18279901;32;20053;-59
2023/08/29 06:27:37;;;;;;;1.70;0.95;;;;;;;12.54;100.00;97270.47;18293271;32;20084;-59
2023/08/29 06:37:40;;;;;;;1.52;1.05;;;;;;;12.74;100.00;97282.91;18292682;32;20084;-59
2023/08/29 06:47:43;;;;;;;2.87;1.08;;;;;;;12.92;100.00;97281.28;18283093;32;20053;-59
2023/08/29 06:57:46;;;;;;;5.05;1.05;;;;;;;13.15;100.00;97290.44;18303248;32;20058;-59
2023/08/29 07:07:49;;;;;;;1.42;0.98;;;;;;;13.39;100.00;97295.78;18302929;32;20074;-59
2023/08/29 07:17:53;;;;;;;1.20;1.00;;;;;;;13.72;100.00;97303.13;18302550;32;20081;-59
2023/08/29 07:27:56;;;;;;;1.47;1.13;;;;;;;13.94;100.00;97307.88;18301667;32;20452;-59
2023/08/29 07:38:00;;;;;;;1.57;1.47;;;;;;;14.04;100.00;97304.94;18287274;32;20522;-59
2023/08/29 07:48:04;;;;;;;1.35;1.10;;;;;;;14.28;100.00;97320.25;18286677;32;20124;-59
2023/08/29 07:58:09;;;;;;;2.28;1.48;;;;;;;14.46;100.00;97325.87;18299975;32;20374;-59
2023/08/29 08:08:12;;;;;;;2.20;2.00;;;;;;;14.60;100.00;97318.50;18285816;32;20109;-59
2023/08/29 08:18:15;;;;;;;1.67;1.40;;;;;;;14.77;100.00;97336.16;18299239;32;20080;-59
2023/08/29 08:28:19;;;;;;;3.00;1.60;;;;;;;14.93;100.00;97323.03;18298844;32;20098;-59
2023/08/29 08:38:22;;;;;;;3.47;1.97;;;;;;;15.20;100.00;97324.84;18298052;32;20154;-59
2023/08/29 08:48:25;;;;;;;2.25;1.70;;;;;;;15.45;100.00;97334.31;18297824;32;20081;-59
2023/08/29 08:58:28;;;;;;;1.50;1.40;;;;;;;15.65;100.00;97345.81;18271128;32;20486;-59
2023/08/29 09:08:32;;;;;;;3.10;1.50;;;;;;;15.73;100.00;97334.16;18295859;32;20460;-59
2023/08/29 09:18:34;;;;;;;1.95;1.37;;;;;;;15.79;100.00;97335.66;18282660;32;20114;-59
2023/08/29 09:28:38;;;;;;;3.20;1.87;;;;;;;16.18;100.00;97334.06;18295845;32;20042;-59
2023/08/29 09:38:41;;;;;;;1.40;1.30;;;;;;;16.45;100.00;97335.00;18281544;32;20058;-59
2023/08/29 09:48:56;;;;;;;1.60;1.50;;;;;;;16.47;100.00;97329.22;18281477;32;20457;-59
2023/08/29 09:59:02;;;;;;;2.22;1.60;;;;;;;16.14;100.00;97332.31;18294731;32;20180;-59
2023/08/29 10:09:06;;;;;;;3.00;1.37;;;;;;;15.65;100.00;97335.72;18294338;32;20426;-59
2023/08/29 10:19:12;;;;;;;1.43;1.30;;;;;;;15.70;100.00;97341.03;18294406;32;20062;-59
2023/08/29 10:29:16;;;;;;;1.85;1.33;;;;;;;16.10;100.00;97334.84;18304699;32;20165;-57
2023/08/29 10:39:19;;;;;;;2.35;2.15;;;;;;;16.51;100.00;97339.19;18304158;32;20513;-57
2023/08/29 10:49:22;;;;;;;3.05;2.30;;;;;;;16.85;100.00;97329.44;18289717;32;20047;-57
2023/08/29 10:59:32;;;;;;;2.83;2.33;;;;;;;17.08;100.00;97318.41;18303204;32;20091;-57
2023/08/29 11:09:37;;;;;;;4.03;3.37;;;;;;;17.25;100.00;97310.22;18302556;32;20050;-57
2023/08/29 11:19:41;;;;;;;3.35;2.15;;;;;;;17.40;100.00;97300.72;18288629;32;20077;-57
2023/08/29 11:29:44;;;;;;;2.45;2.10;;;;;;;17.54;100.00;97300.53;18287968;32;20146;-57
2023/08/29 11:39:55;;;;;;;3.12;2.30;;;;;;;17.98;100.00;97294.97;18300248;32;20083;-57
2023/08/29 11:49:58;;;;;;;3.50;2.65;;;;;;;18.46;100.00;97290.22;18300950;32;20059;-58
2023/08/29 12:00:04;;;;;;;2.97;2.70;;;;;;;18.99;100.00;97284.41;18300150;32;20469;-57
2023/08/29 12:10:13;;;;;;;2.78;2.15;;;;;;;19.27;100.00;97285.47;18286569;32;20050;-57
2023/08/29 12:20:16;;;;;;;2.28;2.00;;;;;;;19.05;100.00;97283.06;18299463;32;20109;-57
2023/08/29 12:30:20;;;;;;;2.27;1.67;;;;;;;18.91;100.00;97275.94;18299176;32;20101;-57
2023/08/29 12:40:23;;;;;;;1.75;1.60;;;;;;;18.76;100.00;97279.22;18298020;32;20058;-57
2023/08/29 12:50:26;;;;;;;2.13;1.67;;;;;;;18.68;100.00;97278.16;18297748;32;20065;-58
2023/08/29 13:00:29;;;;;;;2.65;1.58;;;;;;;18.30;100.00;97273.56;18283627;32;20058;-57
2023/08/29 13:10:31;;;;;;;1.93;1.70;;;;;;;18.00;100.00;97267.28;18296957;32;20054;-57
2023/08/29 13:20:34;;;;;;;2.03;1.83;;;;;;;17.88;100.00;97271.50;18282477;32;20104;-57
2023/08/29 13:30:37;;;;;;;2.30;2.10;;;;;;;17.71;100.00;97279.75;18282460;32;20109;-57
2023/08/29 13:40:40;;;;;;;2.20;1.80;;;;;;;17.28;100.00;97287.72;18281370;32;20114;-57
2023/08/29 13:50:45;;;;;;;2.28;1.52;;;;;;;17.02;100.00;97281.44;18295301;32;20058;-58
2023/08/29 14:00:48;;;;;;;2.77;1.30;;;;;;;16.72;100.00;97275.81;18294039;32;20122;-57
2023/08/29 14:10:52;;;;;;;1.48;1.17;;;;;;;16.52;100.00;97267.09;18281115;32;20117;-57
2023/08/29 14:20:54;;;;;;;2.07;1.37;;;;;;;16.53;100.00;97271.44;18294390;32;20094;-57
2023/08/29 14:30:57;;;;;;;2.55;1.75;;;;;;;16.32;100.00;97267.69;18254729;32;20109;-57
2023/08/29 14:41:07;;;;;;;3.80;1.60;;;;;;;16.11;100.00;97272.94;18293520;32;20068;-57
2023/08/29 14:51:10;;;;;;;1.50;1.23;;;;;;;15.90;100.00;97279.75;18279305;32;20409;-57
2023/08/29 15:01:13;;;;;;;1.45;1.00;;;;;;;15.66;100.00;97284.75;18278621;32;20042;-57
2023/08/29 15:11:17;;;;;;;1.20;1.00;;;;;;;15.25;100.00;97292.00;18272795;32;20058;-57
2023/08/29 15:21:20;;;;;;;1.20;0.98;;;;;;;14.86;100.00;97298.94;18288759;32;20058;-57
2023/08/29 15:31:22;;;;;;;1.92;1.00;;;;;;;14.93;100.00;97310.19;18287948;32;20066;-57
2023/08/29 15:41:25;;;;;;;3.20;1.20;;;;;;;14.94;100.00;97317.25;18262093;32;20050;-57
2023/08/29 15:51:28;;;;;;;1.58;1.08;;;;;;;14.96;100.00;97322.41;18287028;32;20442;-57
2023/08/29 16:01:33;;;;;;;1.52;1.30;;;;;;;15.07;100.00;97318.31;18300280;32;20042;-59
2023/08/29 16:11:35;;;;;;;2.00;1.30;;;;;;;15.20;100.00;97312.03;18299892;32;20453;-59
2023/08/29 16:21:38;;;;;;;2.20;1.40;;;;;;;15.32;100.00;97318.81;18285202;32;20157;-59
2023/08/29 16:31:42;;;;;;;3.42;1.62;;;;;;;15.50;100.00;97319.75;18285265;32;20054;-59
2023/08/29 16:41:45;;;;;;;2.55;1.73;;;;;;;15.54;100.00;97324.28;18298422;32;20058;-59
2023/08/29 16:51:48;;;;;;;1.75;1.52;;;;;;;15.52;100.00;97322.97;18283819;32;20069;-59
2023/08/29 17:01:51;;;;;;;4.07;1.65;;;;;;;15.37;100.00;97321.44;18284225;32;20096;-59
2023/08/29 17:11:55;;;;;;;1.90;1.47;;;;;;;15.32;100.00;97321.53;18296946;32;20061;-59
2023/08/29 17:21:58;;;;;;;5.23;1.90;;;;;;;15.20;100.00;97312.03;18296347;32;20069;-59
2023/08/29 17:32:01;;;;;;;2.58;1.60;;;;;;;15.05;100.00;97318.63;18281543;32;20061;-59
2023/08/29 17:42:05;;;;;;;3.33;1.83;;;;;;;14.88;100.00;97326.63;18295104;32;20054;-59
2023/08/29 17:52:09;;;;;;;3.33;1.73;;;;;;;14.71;100.00;97325.37;18281389;32;20085;-59
2023/08/29 18:02:14;;;;;;;6.03;1.60;;;;;;;14.58;100.00;97326.97;18294699;32;20090;-59
2023/08/29 18:12:18;;;;;;;6.40;1.60;;;;;;;14.48;100.00;97335.34;18294380;32;20070;-59
2023/08/29 18:22:23;;;;;;;1.90;1.70;;;;;;;14.32;100.00;97325.87;18293661;32;20066;-59
2023/08/29 18:32:26;;;;;;;3.28;1.85;;;;;;;14.19;100.00;97333.75;18293523;32;20054;-59
2023/08/29 18:42:30;;;;;;;7.30;1.62;;;;;;;14.04;100.00;97347.63;18295238;32;20096;-59
2023/08/29 18:52:33;;;;;;;3.50;2.10;;;;;;;13.98;100.00;97348.84;18303684;32;20383;-59
2023/08/29 19:02:37;;;;;;;3.83;2.00;;;;;;;13.90;100.00;97347.63;18303619;32;20050;-59
2023/08/29 19:12:41;;;;;;;5.28;1.92;;;;;;;13.87;100.00;97359.88;18302882;32;20114;-59
2023/08/29 19:22:44;;;;;;;6.50;2.72;;;;;;;13.77;100.00;97354.63;18301973;32;20057;-59
2023/08/29 19:32:48;;;;;;;4.22;1.98;;;;;;;13.71;100.00;97362.06;18302114;32;20384;-59
2023/08/29 19:42:50;;;;;;;3.87;2.30;;;;;;;13.68;100.00;97362.66;18236777;32;20057;-59
2023/08/29 19:52:53;;;;;;;4.07;2.58;;;;;;;13.56;100.00;97352.25;18236896;32;20093;-59
2023/08/29 20:02:57;;;;;;;3.17;1.97;;;;;;;13.58;100.00;97345.72;18237445;32;20058;-59
2023/08/29 20:13:00;;;;;;;7.47;2.63;;;;;;;13.49;100.00;97349.13;18236979;32;20439;-59
2023/08/29 20:23:04;;;;;;;5.87;2.30;;;;;;;13.47;100.00;97337.75;18236647;32;20062;-59
2023/08/29 20:33:07;;;;;;;2.60;2.13;;;;;;;13.44;100.00;97341.06;18236579;32;20054;-59
2023/08/29 20:43:10;;;;;;;9.18;2.70;;;;;;;13.36;100.00;97342.56;18295452;32;20171;-59
2023/08/29 20:53:13;;;;;;;3.72;2.67;;;;;;;13.33;100.00;97343.13;18271328;32;20098;-59
2023/08/29 21:03:16;;;;;;;2.62;2.42;;;;;;;13.28;100.00;97347.78;18297634;32;20391;-59
2023/08/29 21:13:20;;;;;;;3.70;2.55;;;;;;;13.22;100.00;97345.19;18296664;32;20485;-59
2023/08/29 21:23:24;;;;;;;8.23;3.30;;;;;;;13.15;100.00;97325.72;18296232;32;20057;-59
2023/08/29 21:33:27;;;;;;;10.27;3.10;;;;;;;13.03;100.00;97320.75;18295759;32;20054;-59
2023/08/29 21:43:29;;;;;;;7.32;2.87;;;;;;;12.95;100.00;97321.44;18295329;32;20121;-59
2023/08/29 21:53:32;;;;;;;3.62;2.60;;;;;;;12.83;100.00;97321.88;18281401;32;20114;-59
2023/08/29 22:03:35;;;;;;;2.83;2.40;;;;;;;12.84;100.00;97311.81;18280947;32;20053;-59
2023/08/29 22:13:38;;;;;;;9.05;3.22;;;;;;;12.80;100.00;97294.50;18294206;32;20136;-59
2023/08/29 22:23:41;;;;;;;2.95;2.65;;;;;;;12.75;100.00;97283.75;18289633;32;20342;-59
2023/08/29 22:33:44;;;;;;;5.10;2.70;;;;;;;12.70;100.00;97280.00;18278431;32;20055;-59
2023/08/29 22:43:46;;;;;;;4.30;2.50;;;;;;;12.60;100.00;97272.00;18304653;32;20471;-59
2023/08/29 22:53:49;;;;;;;6.65;3.08;;;;;;;12.45;100.00;97269.50;18303838;32;20066;-59
2023/08/29 23:03:52;;;;;;;3.65;2.50;;;;;;;12.38;100.00;97267.94;18303252;32;20366;-59
2023/08/29 23:13:54;;;;;;;4.03;2.33;;;;;;;12.35;100.00;97265.03;18289246;32;20095;-59
2023/08/29 23:23:57;;;;;;;8.82;2.37;;;;;;;12.23;100.00;97259.22;18288569;32;20102;-59
2023/08/29 23:33:59;;;;;;;4.15;1.80;;;;;;;12.29;100.00;97252.62;18286389;32;20101;-59
2023/08/29 23:44:02;;;;;;;2.35;1.87;;;;;;;12.15;100.00;97242.50;18286964;32;20072;-59
2023/08/29 23:54:04;;;;;;;4.55;2.50;;;;;;;12.22;100.00;97241.34;18300676;32;20087;-59
